Airfield :
LOGIN :

Register | Disclaimer

   EN    FR    IT 

 










Legend :    VFR   Marginal VFR   IFR   Intensive IFR   Very Intensive IFR
Visi :
Ceiling :
>= 8 km
>= 3000ft
5 to 8 km
1000 to 3000 ft
1500m to 5 km
500 to 1000 ft
800 to 1500m
200 to 500 ft
< 800m
< 200 ft
Symbols :   Thunderstorms  Fog  Heavy snow  Heavy precipitations  Wind > 20 kt
SIGMETs :     Misc.  Thunderstorms  Icing  Turbulence  Mountain Waves  Volcanic Ashes






- Airport Elevation : 295 ft
- IATA code : BWE


EDVE - Braunschweig

CURRENT METAR :
  • 052050Z AUTO 00000KT 9999 FEW031/// OVC058/// 01/M01 Q1039

EXPIRED METARs :
  • 052020Z 00000KT 9999 FEW018 00/M02 Q1039
  • 051950Z 00000KT 9999 BKN019 01/M01 Q1039
  • 051920Z AUTO 27002KT 9999 FEW019/// OVC062/// 00/M01 Q1038
  • 051850Z AUTO VRB01KT 9999 OVC069/// 00/M02 Q1038
  • 051820Z AUTO 00000KT 9999 BKN077/// OVC100/// 00/M01 Q1038

Expired Forecast.



MET'MAP, your aeronautical weather chart ! - Copyright ORBIFLY December 2007 - Disclaimer

ORBIFLY MET'MAP TEAM :

Programming & Development : Alexandra Zaïnal
Original concept : Baudouin d'Aumeries
Technical & hardware support : Manuel Goepfert
Assistance : Marc-Olivier Méhu




SOURCES & CREDITS :

   NOAA